Time;durP1;ratioP1;P1;durP2;ratioP2;P2;SDS_P1;SDS_P2;PMS_P1;PMS_P2;Temp;Humidity;BMP_temperature;BMP_pressure;BME280_temperature;BME280_humidity;BME280_pressure;Samples;Min_cycle;Max_cycle;Signal;HPM_P1;HPM_P2
2023/08/11 00:01:17;;;;;;;7.25;2.67;;;;;;;16.32;100.00;100868.16;4947287;28;20233;-81
2023/08/11 00:03:44;;;;;;;13.32;4.28;;;;;;;16.12;100.00;100861.22;4948636;28;20235;-82
2023/08/11 00:06:12;;;;;;;11.00;3.42;;;;;;;16.06;100.00;100867.47;4956031;28;20675;-81
2023/08/11 00:08:40;;;;;;;10.65;3.30;;;;;;;15.84;100.00;100868.50;4935720;28;20238;-81
2023/08/11 00:11:07;;;;;;;16.52;4.53;;;;;;;15.80;100.00;100870.28;4945559;28;20239;-81
2023/08/11 00:13:35;;;;;;;10.32;2.97;;;;;;;15.84;100.00;100885.38;4948163;28;20237;-81
2023/08/11 00:16:03;;;;;;;35.10;6.25;;;;;;;15.91;100.00;100897.78;4940817;28;20245;-81
2023/08/11 00:18:30;;;;;;;9.32;3.22;;;;;;;15.95;100.00;100896.00;4941679;28;20295;-81
2023/08/11 00:20:59;;;;;;;43.72;9.73;;;;;;;16.10;100.00;100916.34;4930710;28;20324;-81
2023/08/11 00:23:26;;;;;;;9.15;3.63;;;;;;;16.07;100.00;100911.03;4944820;28;20312;-81
2023/08/11 00:25:52;;;;;;;15.63;5.38;;;;;;;15.98;100.00;100903.97;4929778;28;20245;-81
2023/08/11 00:28:19;;;;;;;7.32;2.72;;;;;;;15.92;100.00;100893.34;4961846;28;20252;-81
2023/08/11 00:30:46;;;;;;;10.23;4.13;;;;;;;15.91;100.00;100904.91;4949824;28;20280;-81
2023/08/11 00:33:13;;;;;;;7.88;3.20;;;;;;;15.91;100.00;100900.47;4953502;28;20229;-81
2023/08/11 00:35:43;;;;;;;7.57;3.38;;;;;;;15.98;100.00;100910.19;4937156;28;20237;-81
2023/08/11 00:38:10;;;;;;;9.00;3.30;;;;;;;16.01;100.00;100901.28;4940575;28;20231;-81
2023/08/11 00:40:37;;;;;;;8.98;3.63;;;;;;;15.87;100.00;100908.47;4950752;28;20233;-81
2023/08/11 00:43:04;;;;;;;7.28;2.97;;;;;;;15.69;100.00;100917.47;4928699;28;20256;-82
2023/08/11 00:45:31;;;;;;;8.48;3.53;;;;;;;15.68;100.00;100916.56;4941868;28;20320;-82
2023/08/11 00:47:58;;;;;;;20.15;6.78;;;;;;;15.90;100.00;100919.13;4937897;28;20234;-82
2023/08/11 00:50:25;;;;;;;8.77;3.30;;;;;;;15.99;100.00;100916.41;4944122;28;20226;-81
2023/08/11 00:52:52;;;;;;;37.88;9.18;;;;;;;16.01;100.00;100919.97;4954834;28;20226;-81
2023/08/11 00:55:21;;;;;;;6.60;2.60;;;;;;;15.98;100.00;100919.97;4946816;28;20241;-82
2023/08/11 00:57:48;;;;;;;42.53;10.82;;;;;;;15.94;100.00;100931.56;4934161;28;20241;-82
2023/08/11 01:00:16;;;;;;;6.05;2.40;;;;;;;15.93;100.00;100943.13;4946978;28;20302;-82
2023/08/11 01:02:44;;;;;;;9.52;3.22;;;;;;;15.85;100.00;100943.16;4951728;28;20242;-82
2023/08/11 01:05:12;;;;;;;10.90;4.10;;;;;;;15.75;100.00;100930.75;4955447;28;20256;-82
2023/08/11 01:08:04;;;;;;;8.10;2.88;;;;;;;15.77;100.00;100947.66;4941449;28;20245;-82
2023/08/11 01:10:50;;;;;;;9.25;3.10;;;;;;;15.47;100.00;100950.34;4961065;28;20243;-82
2023/08/11 01:13:18;;;;;;;10.88;3.53;;;;;;;15.08;100.00;100935.34;4944890;28;20235;-82
2023/08/11 01:15:52;;;;;;;16.85;5.50;;;;;;;15.11;100.00;100943.31;4956930;28;20235;-82
2023/08/11 01:18:20;;;;;;;9.60;3.25;;;;;;;15.15;100.00;100943.31;4956787;28;20256;-82
2023/08/11 01:20:48;;;;;;;14.95;4.70;;;;;;;15.12;100.00;100947.75;4941198;28;20240;-82
2023/08/11 01:23:19;;;;;;;22.98;4.07;;;;;;;15.29;100.00;100961.94;4961752;28;20732;-82
2023/08/11 01:25:47;;;;;;;15.57;4.90;;;;;;;15.32;100.00;100962.81;4942954;28;20236;-82
2023/08/11 01:28:14;;;;;;;7.20;2.40;;;;;;;15.10;100.00;100952.19;4949696;28;20233;-82
2023/08/11 01:30:41;;;;;;;13.48;4.40;;;;;;;15.04;100.00;100956.66;4964617;28;20237;-82
2023/08/11 01:33:08;;;;;;;11.35;3.60;;;;;;;15.11;100.00;100959.31;4957749;28;20320;-82
2023/08/11 01:35:35;;;;;;;10.82;3.67;;;;;;;14.84;100.00;100957.53;4962406;28;20241;-82
2023/08/11 01:38:12;;;;;;;12.15;4.10;;;;;;;14.88;100.00;100962.88;4959160;28;20602;-82
2023/08/11 01:40:39;;;;;;;14.82;5.35;;;;;;;14.91;100.00;100960.19;4965213;28;20728;-82
2023/08/11 01:43:10;;;;;;;11.77;3.78;;;;;;;14.93;100.00;100963.75;4959454;28;20291;-82
2023/08/11 01:45:37;;;;;;;10.27;3.35;;;;;;;14.89;100.00;100969.09;4946861;28;20245;-82
2023/08/11 01:48:04;;;;;;;8.75;3.03;;;;;;;14.72;100.00;100961.97;4941936;28;20332;-80
2023/08/11 01:50:31;;;;;;;11.95;3.83;;;;;;;14.76;100.00;100962.88;4941672;28;20230;-80
2023/08/11 01:52:58;;;;;;;15.70;4.43;;;;;;;14.81;100.00;100969.09;4941137;28;20259;-81
2023/08/11 01:55:26;;;;;;;9.85;3.03;;;;;;;14.80;100.00;100980.63;4943109;28;20232;-81
2023/08/11 01:57:53;;;;;;;23.20;6.43;;;;;;;14.67;100.00;100971.75;4941896;28;20281;-81
2023/08/11 02:00:26;;;;;;;12.80;4.10;;;;;;;14.76;100.00;100968.19;4941775;28;20261;-82
2023/08/11 02:02:53;;;;;;;20.05;5.93;;;;;;;14.95;100.00;100974.41;4939585;28;20320;-82
2023/08/11 02:05:24;;;;;;;13.52;4.03;;;;;;;15.05;100.00;100973.50;4941855;28;20648;-82
2023/08/11 02:07:52;;;;;;;31.42;9.02;;;;;;;14.82;100.00;100956.66;4935174;28;20316;-82
2023/08/11 02:10:19;;;;;;;10.52;3.38;;;;;;;14.73;100.00;100958.44;4946532;28;20241;-81
2023/08/11 02:12:47;;;;;;;15.07;4.90;;;;;;;14.63;100.00;100969.06;4932225;28;20301;-82
2023/08/11 02:15:15;;;;;;;12.13;3.58;;;;;;;14.57;100.00;100964.63;4965902;28;20248;-82
2023/08/11 02:17:42;;;;;;;11.55;3.40;;;;;;;14.65;100.00;100975.28;4961877;28;20236;-82
2023/08/11 02:20:32;;;;;;;12.55;3.63;;;;;;;14.46;100.00;100969.06;4959069;28;20260;-82
2023/08/11 02:22:56;;;;;;;22.92;6.35;;;;;;;14.43;100.00;100974.38;4960323;28;20306;-82
2023/08/11 02:25:25;;;;;;;14.48;4.13;;;;;;;14.42;100.00;100977.91;4961486;28;20245;-82
2023/08/11 02:27:52;;;;;;;31.88;8.65;;;;;;;14.24;100.00;100978.69;4955630;28;20237;-82
2023/08/11 02:30:21;;;;;;;15.13;4.53;;;;;;;14.32;100.00;100976.97;4963674;28;20232;-82
2023/08/11 02:32:50;;;;;;;23.42;6.03;;;;;;;14.57;100.00;100987.69;4942937;28;20356;-82
2023/08/11 02:35:17;;;;;;;16.80;4.38;;;;;;;14.38;100.00;100982.31;4962934;28;20272;-81
2023/08/11 02:37:44;;;;;;;13.77;3.53;;;;;;;14.33;100.00;100984.06;4956300;28;20319;-83
2023/08/11 02:40:11;;;;;;;15.98;4.45;;;;;;;14.49;100.00;100986.81;4947494;28;20247;-82
2023/08/11 02:42:43;;;;;;;13.80;3.92;;;;;;;14.57;100.00;100993.03;4961717;28;20611;-82
2023/08/11 02:45:11;;;;;;;13.98;3.85;;;;;;;14.55;100.00;100998.34;4938697;28;20237;-82
2023/08/11 02:47:42;;;;;;;13.95;3.70;;;;;;;14.63;100.00;100993.91;4937618;28;20752;-82
2023/08/11 02:50:10;;;;;;;15.00;4.15;;;;;;;14.41;100.00;100981.44;4942233;28;20766;-81
2023/08/11 02:52:37;;;;;;;15.70;3.92;;;;;;;14.43;100.00;100978.81;4945762;28;20669;-82
2023/08/11 02:55:05;;;;;;;15.65;4.07;;;;;;;14.44;100.00;100983.25;4897006;28;1299622;-82
2023/08/11 02:57:32;;;;;;;14.23;3.60;;;;;;;14.46;100.00;100987.69;4945903;28;20241;-82
2023/08/11 02:59:59;;;;;;;38.10;9.40;;;;;;;14.42;100.00;100999.19;4939959;28;20264;-82
2023/08/11 03:02:26;;;;;;;13.65;3.85;;;;;;;14.31;100.00;100990.28;4949891;28;20265;-82
2023/08/11 03:04:53;;;;;;;34.05;8.15;;;;;;;14.37;100.00;100991.19;4944034;28;20256;-82
2023/08/11 03:07:20;;;;;;;14.88;3.88;;;;;;;14.31;100.00;101001.81;4946652;28;20237;-82
2023/08/11 03:09:46;;;;;;;19.38;5.13;;;;;;;14.31;100.00;100998.25;4950924;28;20260;-82
2023/08/11 03:12:13;;;;;;;14.25;3.83;;;;;;;14.34;100.00;100996.50;4961914;28;20229;-82
2023/08/11 03:14:41;;;;;;;15.20;4.22;;;;;;;14.35;100.00;101000.03;4955029;28;20236;-81
2023/08/11 03:17:10;;;;;;;12.20;3.35;;;;;;;14.31;100.00;100998.25;4944881;28;20235;-81
2023/08/11 03:19:36;;;;;;;13.18;3.80;;;;;;;14.36;100.00;101009.81;4955389;28;20221;-82
2023/08/11 03:22:03;;;;;;;20.65;5.32;;;;;;;14.27;100.00;101007.06;4958811;28;20244;-82
2023/08/11 03:24:30;;;;;;;15.82;4.18;;;;;;;14.12;100.00;101002.59;4956247;28;20292;-82
2023/08/11 03:26:57;;;;;;;33.95;8.30;;;;;;;14.15;100.00;101007.94;4936401;28;20279;-82
2023/08/11 03:29:24;;;;;;;11.95;3.38;;;;;;;14.09;100.00;101007.91;4961773;28;20652;-82
2023/08/11 03:31:51;;;;;;;22.48;6.22;;;;;;;14.00;100.00;101005.22;4940040;28;20315;-82
2023/08/11 03:34:18;;;;;;;14.35;3.90;;;;;;;13.85;100.00;101000.72;4962496;28;20235;-82
2023/08/11 03:36:44;;;;;;;14.23;4.40;;;;;;;13.68;100.00;100994.41;4941943;28;20236;-82
2023/08/11 03:39:11;;;;;;;11.75;3.35;;;;;;;13.72;100.00;101014.81;4960761;28;20611;-82
2023/08/11 03:41:38;;;;;;;14.25;4.13;;;;;;;13.78;100.00;101004.22;4961138;28;20321;-82
2023/08/11 03:44:05;;;;;;;14.63;3.90;;;;;;;14.03;100.00;101026.50;4941307;28;20240;-82
2023/08/11 03:46:32;;;;;;;15.05;3.95;;;;;;;13.81;100.00;101017.53;4964484;28;20620;-82
2023/08/11 03:48:58;;;;;;;30.85;7.00;;;;;;;13.88;100.00;101022.00;4946317;28;20292;-82
2023/08/11 03:51:25;;;;;;;13.60;3.42;;;;;;;13.96;100.00;101038.88;4952957;28;20229;-82
2023/08/11 03:53:52;;;;;;;40.92;10.23;;;;;;;13.87;100.00;101030.84;4938832;28;20233;-82
2023/08/11 03:56:19;;;;;;;10.68;2.70;;;;;;;13.90;100.00;101046.81;4945598;28;20580;-82
2023/08/11 03:58:46;;;;;;;23.55;5.75;;;;;;;13.85;100.00;101042.38;4936921;28;20348;-82
2023/08/11 04:01:13;;;;;;;11.77;3.83;;;;;;;14.02;100.00;101046.88;4942629;28;20238;-82
2023/08/11 04:03:40;;;;;;;18.52;5.45;;;;;;;13.72;100.00;101044.94;4940878;28;20237;-82
2023/08/11 04:06:07;;;;;;;15.25;4.18;;;;;;;13.74;100.00;101040.53;4936143;28;20229;-82
2023/08/11 04:08:34;;;;;;;14.18;3.78;;;;;;;13.83;100.00;101042.34;4940387;28;20233;-82
2023/08/11 04:11:00;;;;;;;30.60;7.68;;;;;;;13.76;100.00;101048.50;4942192;28;20564;-82
2023/08/11 04:13:28;;;;;;;21.33;6.32;;;;;;;13.73;100.00;101048.50;4947589;28;20229;-82
2023/08/11 04:15:54;;;;;;;33.83;8.35;;;;;;;13.62;100.00;101051.09;4934857;28;20245;-82
2023/08/11 04:18:21;;;;;;;20.13;5.47;;;;;;;13.57;100.00;101038.66;4938672;28;20233;-82
2023/08/11 04:20:48;;;;;;;32.13;7.63;;;;;;;13.54;100.00;101026.25;4935365;28;20245;-82
2023/08/11 04:23:15;;;;;;;16.30;3.95;;;;;;;13.69;100.00;101041.38;4952262;28;20229;-82
2023/08/11 04:25:43;;;;;;;16.35;3.90;;;;;;;13.67;100.00;101048.47;4956538;28;20252;-82
2023/08/11 04:28:10;;;;;;;14.70;3.78;;;;;;;13.73;100.00;101052.03;4940966;28;20224;-82
2023/08/11 04:30:37;;;;;;;15.63;3.88;;;;;;;13.85;100.00;101059.19;4951181;28;20254;-82
2023/08/11 04:33:05;;;;;;;18.73;4.82;;;;;;;13.69;100.00;101047.59;4947214;28;20334;-82
2023/08/11 04:35:33;;;;;;;15.93;3.85;;;;;;;13.82;100.00;101060.97;4951728;28;20234;-82
2023/08/11 04:37:59;;;;;;;27.27;6.70;;;;;;;13.92;100.00;101068.09;4938673;28;20309;-82
2023/08/11 04:40:26;;;;;;;20.77;6.10;;;;;;;13.81;100.00;101077.78;4951935;28;20237;-82
2023/08/11 04:42:53;;;;;;;32.33;8.10;;;;;;;13.75;100.00;101070.66;4961221;28;20233;-83
2023/08/11 04:45:20;;;;;;;16.60;4.53;;;;;;;13.63;100.00;101070.59;4946643;28;20316;-82
2023/08/11 04:47:47;;;;;;;27.08;6.90;;;;;;;13.65;100.00;101069.72;4950696;28;20320;-83
2023/08/11 04:50:14;;;;;;;13.35;3.55;;;;;;;13.81;100.00;101073.34;4942797;28;20704;-82
2023/08/11 04:52:41;;;;;;;16.85;4.38;;;;;;;13.88;100.00;101091.13;4940582;28;20238;-83
2023/08/11 04:55:12;;;;;;;16.50;4.55;;;;;;;13.93;100.00;101092.03;4949851;28;20240;-84
2023/08/11 04:57:39;;;;;;;10.98;3.00;;;;;;;13.98;100.00;101100.03;4938139;28;20723;-84
2023/08/11 05:00:06;;;;;;;14.45;3.78;;;;;;;13.98;100.00;101094.72;4938975;28;20320;-83
2023/08/11 05:02:33;;;;;;;19.98;6.00;;;;;;;14.08;100.00;101108.09;4942734;28;20241;-83
2023/08/11 05:05:00;;;;;;;25.67;6.47;;;;;;;14.08;100.00;101108.09;4939586;28;20266;-84
2023/08/11 05:07:27;;;;;;;16.40;4.35;;;;;;;14.09;100.00;101120.50;4944064;28;20240;-83
2023/08/11 05:09:53;;;;;;;22.98;6.30;;;;;;;14.16;100.00;101126.75;4936328;28;20290;-84
2023/08/11 05:12:20;;;;;;;14.18;3.83;;;;;;;14.17;100.00;101124.97;4943175;28;20288;-84
2023/08/11 05:14:47;;;;;;;21.73;5.15;;;;;;;14.20;100.00;101133.88;4939579;28;20241;-85
2023/08/11 05:17:14;;;;;;;14.07;3.92;;;;;;;14.29;100.00;101139.22;4941513;28;20233;-84
2023/08/11 05:19:41;;;;;;;15.85;4.30;;;;;;;14.41;100.00;101141.09;4940849;28;20225;-84
2023/08/11 05:22:08;;;;;;;9.63;2.45;;;;;;;14.51;100.00;101134.97;4942665;28;20237;-83
2023/08/11 05:24:36;;;;;;;8.93;2.90;;;;;;;14.58;100.00;101139.44;4949676;28;20237;-84
2023/08/11 05:27:03;;;;;;;36.30;7.70;;;;;;;14.64;100.00;101139.44;4937418;28;20332;-84
2023/08/11 05:29:30;;;;;;;13.20;4.43;;;;;;;14.66;100.00;101135.03;4951422;28;20221;-84
2023/08/11 05:31:57;;;;;;;43.15;9.77;;;;;;;14.70;100.00;101134.16;4931909;28;20237;-83
2023/08/11 05:34:23;;;;;;;9.45;2.78;;;;;;;14.79;100.00;101146.59;4945798;28;20321;-83
2023/08/11 05:36:50;;;;;;;40.40;8.85;;;;;;;14.70;100.00;101130.59;4944052;28;20321;-83
2023/08/11 05:39:17;;;;;;;13.50;3.85;;;;;;;14.79;100.00;101141.28;4946363;28;20238;-84
2023/08/11 05:41:44;;;;;;;9.93;2.97;;;;;;;14.95;100.00;101145.75;4945836;28;20236;-84
2023/08/11 05:44:11;;;;;;;10.43;3.25;;;;;;;15.10;100.00;101144.00;4943127;28;20609;-83
2023/08/11 05:46:37;;;;;;;6.90;2.40;;;;;;;15.23;100.00;101125.38;4947492;28;20240;-84
2023/08/11 05:49:04;;;;;;;11.00;3.65;;;;;;;15.42;100.00;101115.63;4942617;28;20340;-80
2023/08/11 05:51:31;;;;;;;14.02;5.00;;;;;;;15.45;100.00;101104.06;4957727;28;20627;-80
2023/08/11 05:53:58;;;;;;;45.40;11.10;;;;;;;15.52;100.00;101087.19;4943494;28;20233;-81
2023/08/11 05:56:25;;;;;;;17.50;4.47;;;;;;;15.62;100.00;101084.56;4950256;28;20684;-81
2023/08/11 05:58:52;;;;;;;24.10;6.38;;;;;;;15.72;100.00;101079.22;4944892;28;20229;-78
2023/08/11 06:59:07;;;;;;;9.20;3.35;;;;;;;18.49;100.00;101029.03;5105128;27;20590;-80
2023/08/11 07:01:34;;;;;;;8.40;2.63;;;;;;;18.52;100.00;101010.25;5094731;28;20324;-80
2023/08/11 07:04:01;;;;;;;11.50;3.22;;;;;;;18.75;100.00;101012.63;5085293;28;20213;-81
2023/08/11 07:06:28;;;;;;;12.02;2.65;;;;;;;18.89;100.00;101002.56;5085128;28;20205;-80
2023/08/11 07:08:55;;;;;;;11.00;2.60;;;;;;;18.89;100.00;100970.41;5085729;28;20694;-80
2023/08/11 07:11:22;;;;;;;10.15;2.60;;;;;;;19.12;100.00;100970.91;5089068;28;20193;-81
2023/08/11 07:13:48;;;;;;;13.60;3.60;;;;;;;19.29;100.00;100967.03;5094459;28;20213;-81
2023/08/11 07:16:15;;;;;;;16.70;4.68;;;;;;;19.42;100.00;100947.13;5088760;28;20284;-78
2023/08/11 07:18:42;;;;;;;10.02;2.88;;;;;;;19.75;100.00;100959.06;5077513;28;20225;-78
2023/08/11 07:21:09;;;;;;;13.07;3.45;;;;;;;19.85;100.00;100932.91;5092314;28;20210;-80
2023/08/11 07:23:36;;;;;;;13.60;3.55;;;;;;;19.86;100.00;100908.72;5091071;28;20202;-80
2023/08/11 07:26:06;;;;;;;11.68;3.22;;;;;;;20.17;100.00;100908.03;5092993;28;20217;-80
2023/08/11 07:28:34;;;;;;;15.10;4.60;;;;;;;20.27;100.00;100880.94;5097644;28;20699;-80
2023/08/11 07:31:01;;;;;;;9.50;3.13;;;;;;;20.39;100.00;100872.59;5091536;28;20232;-81
2023/08/11 07:33:28;;;;;;;13.40;4.05;;;;;;;20.16;100.00;100815.84;5093086;28;20201;-81
2023/08/11 07:35:55;;;;;;;7.60;2.53;;;;;;;20.33;100.00;100818.13;5090880;28;20220;-80
2023/08/11 07:38:22;;;;;;;10.65;3.03;;;;;;;20.88;100.00;100838.25;5088429;28;20336;-80
2023/08/11 07:40:49;;;;;;;7.68;2.05;;;;;;;20.91;100.00;100806.78;5090109;28;20206;-80
2023/08/11 07:43:16;;;;;;;8.48;2.47;;;;;;;21.21;100.00;100828.38;5091977;28;20518;-81
2023/08/11 07:45:43;;;;;;;8.55;2.58;;;;;;;21.32;100.00;100780.53;5094845;28;20206;-80
2023/08/11 07:48:09;;;;;;;7.45;2.78;;;;;;;21.51;100.00;100775.50;5091202;28;20264;-80
2023/08/11 07:50:37;;;;;;;6.78;2.47;;;;;;;21.56;100.00;100763.66;5090459;28;20666;-81
2023/08/11 07:53:04;;;;;;;12.10;3.55;;;;;;;21.72;100.00;100737.13;5088598;28;20265;-80
2023/08/11 07:55:31;;;;;;;12.05;3.97;;;;;;;21.51;100.00;100682.19;5086578;28;20202;-81
2023/08/11 07:57:58;;;;;;;10.10;3.00;;;;;;;21.97;100.00;100707.59;5089013;28;20302;-80
2023/08/11 08:00:25;;;;;;;10.25;3.08;;;;;;;22.40;100.00;100738.53;5071289;28;20209;-80
2023/08/11 08:02:53;;;;;;;7.13;2.25;;;;;;;22.61;100.00;100702.72;5073417;28;20217;-80
2023/08/11 08:05:20;;;;;;;8.73;2.75;;;;;;;22.99;100.00;100720.22;5078974;28;20225;-80
2023/08/11 08:07:48;;;;;;;10.48;3.35;;;;;;;22.66;100.00;100630.66;5066738;28;20296;-80
2023/08/11 08:10:14;;;;;;;9.63;2.95;;;;;;;22.41;100.00;100555.22;5076834;28;20229;-81
2023/08/11 08:12:45;;;;;;;9.57;3.00;;;;;;;22.56;100.00;100554.66;5086636;28;20206;-80
2023/08/11 08:15:14;;;;;;;9.63;2.88;;;;;;;23.60;100.00;100697.19;5077902;28;20202;-81
2023/08/11 08:17:41;;;;;;;10.45;3.25;;;;;;;23.22;100.00;100571.81;5081787;28;20239;-81
2023/08/11 08:20:16;;;;;;;7.32;2.55;;;;;;;22.84;100.00;100453.84;5070524;28;20226;-79
2023/08/11 08:22:43;;;;;;;7.85;2.60;;;;;;;23.06;100.00;100467.31;5071097;28;20194;-79
2023/08/11 08:25:10;;;;;;;8.50;3.20;;;;;;;23.74;100.00;100599.41;5071420;28;20575;-77
2023/08/11 08:27:38;;;;;;;11.68;3.53;;;;;;;23.86;100.00;100544.84;5069800;28;20312;-77
2023/08/11 08:30:07;;;;;;;8.05;2.45;;;;;;;24.01;100.00;100551.41;5066482;28;20316;-77
2023/08/11 08:32:37;;;;;;;7.15;2.53;;;;;;;23.63;100.00;100450.47;5072787;28;20198;-79
2023/08/11 08:35:06;;;;;;;8.18;2.70;;;;;;;23.99;100.00;100412.81;5072460;28;20206;-79
2023/08/11 08:37:34;;;;;;;11.30;3.58;;;;;;;24.14;100.00;100386.91;5070366;28;20316;-79
2023/08/11 08:40:01;;;;;;;10.73;3.45;;;;;;;24.38;100.00;100423.59;5070319;28;20688;-78
2023/08/11 08:42:29;;;;;;;6.03;1.95;;;;;;;24.91;100.00;100509.38;5071895;28;20229;-79
2023/08/11 08:44:56;;;;;;;9.52;2.92;;;;;;;24.68;100.00;100413.13;5073545;28;20219;-84
2023/08/11 08:47:26;;;;;;;7.20;2.38;;;;;;;24.17;100.00;100292.19;5073860;28;20209;-81
2023/08/11 08:49:53;;;;;;;8.88;2.58;;;;;;;23.96;100.00;100266.22;5068178;28;20229;-79
2023/08/11 08:52:21;;;;;;;11.20;3.90;;;;;;;25.08;100.00;100376.88;5068577;28;20205;-83
2023/08/11 08:54:48;;;;;;;20.10;6.13;;;;;;;24.38;100.00;100195.69;5073330;28;20209;-83
2023/08/11 08:57:15;;;;;;;11.55;3.15;;;;;;;24.47;100.00;100187.09;5076603;28;20229;-81
2023/08/11 08:59:43;;;;;;;10.90;3.15;;;;;;;23.97;100.00;100103.22;5075579;28;20226;-83
2023/08/11 09:02:12;;;;;;;8.82;2.55;;;;;;;24.35;100.00;100149.91;5064822;28;20217;-80
2023/08/11 09:04:40;;;;;;;16.63;4.63;;;;;;;24.53;100.00;100225.50;5067187;28;20208;-82
2023/08/11 09:07:07;;;;;;;19.08;5.28;;;;;;;25.20;100.00;100297.75;5068499;28;20309;-82
2023/08/11 09:09:34;;;;;;;18.25;4.72;;;;;;;24.98;100.00;100128.53;5062464;28;20256;-81
2023/08/11 09:12:02;;;;;;;14.90;3.85;;;;;;;25.74;100.00;100164.84;5071590;28;20221;-81
2023/08/11 09:14:30;;;;;;;14.48;3.65;;;;;;;25.59;100.00;100168.38;5076965;28;20215;-81
2023/08/11 09:17:02;;;;;;;15.48;3.97;;;;;;;26.49;100.00;100358.41;5069600;28;20232;-81
2023/08/11 09:19:29;;;;;;;12.48;3.20;;;;;;;25.66;100.00;100012.75;5075930;28;20217;-80
2023/08/11 09:21:57;;;;;;;23.38;6.32;;;;;;;26.65;100.00;100166.66;5072195;28;20227;-81
2023/08/11 09:24:24;;;;;;;17.08;4.03;;;;;;;26.37;100.00;100046.34;5075657;28;20225;-82
2023/08/11 09:26:51;;;;;;;19.75;5.05;;;;;;;26.16;100.00;100074.75;5076278;28;20236;-80
2023/08/11 09:29:19;;;;;;;14.55;3.13;;;;;;;26.87;100.00;100147.19;5073373;28;20228;-80
2023/08/11 09:31:54;;;;;;;22.17;5.78;;;;;;;27.02;100.00;100067.56;5072760;28;20240;-82
2023/08/11 09:34:21;;;;;;;16.70;3.88;;;;;;;25.83;100.00;99799.47;5065786;28;20351;-83
2023/08/11 09:36:48;;;;;;;24.60;5.57;;;;;;;26.99;100.00;100025.22;5048962;28;20220;-78
2023/08/11 09:39:16;;;;;;;15.88;3.90;;;;;;;26.85;100.00;99919.38;5043722;28;20256;-80
2023/08/11 09:41:45;;;;;;;19.10;4.93;;;;;;;27.34;100.00;99949.59;5072840;28;20265;-79
2023/08/11 09:44:14;;;;;;;20.83;4.40;;;;;;;26.85;100.00;99904.94;5064281;28;20228;-78
2023/08/11 09:46:42;;;;;;;10.20;2.80;;;;;;;26.52;100.00;99908.91;5066413;28;20295;-79
2023/08/11 09:49:12;;;;;;;11.65;3.08;;;;;;;27.28;100.00;100006.13;5066307;28;20307;-78
2023/08/11 09:51:40;;;;;;;10.30;3.35;;;;;;;27.41;100.00;99914.75;5065991;28;20319;-78
2023/08/11 09:54:09;;;;;;;7.80;2.47;;;;;;;28.20;100.00;99957.22;5067369;28;20296;-78
2023/08/11 09:56:37;;;;;;;12.38;3.35;;;;;;;27.29;100.00;99799.69;5065273;28;20363;-78
2023/08/11 09:59:07;;;;;;;13.73;4.13;;;;;;;27.47;100.00;99778.53;5063664;28;20233;-78
2023/08/11 10:01:35;;;;;;;12.23;3.33;;;;;;;28.13;100.00;99928.75;5068679;28;20239;-79
2023/08/11 10:04:10;;;;;;;10.50;2.45;;;;;;;29.60;100.00;100116.66;5066716;28;20312;-78
2023/08/11 10:06:41;;;;;;;20.20;4.50;;;;;;;29.75;100.00;100106.44;5063680;28;20315;-79
2023/08/11 10:09:12;;;;;;;17.13;4.05;;;;;;;30.55;100.00;100096.63;5064137;28;20222;-79
2023/08/11 10:11:41;;;;;;;16.90;3.85;;;;;;;29.15;100.00;99745.13;5067413;28;20259;-78
2023/08/11 10:14:08;;;;;;;16.63;4.07;;;;;;;28.17;100.00;99773.44;5067632;28;20246;-78
2023/08/11 10:16:36;;;;;;;18.48;4.45;;;;;;;28.77;100.00;99739.94;5066766;28;20237;-80
2023/08/11 10:19:03;;;;;;;14.82;4.00;;;;;;;28.93;100.00;99767.72;5049684;28;20294;-78
2023/08/11 10:21:30;;;;;;;16.30;4.07;;;;;;;28.86;100.00;99694.84;5071030;28;20717;-79
2023/08/11 10:23:57;;;;;;;17.63;4.20;;;;;;;28.67;100.00;99718.00;5048166;28;20235;-80
2023/08/11 10:26:24;;;;;;;11.95;2.90;;;;;;;29.38;100.00;99843.22;5067830;28;20233;-79
2023/08/11 10:28:51;;;;;;;12.80;3.40;;;;;;;28.89;100.00;99796.16;5066717;28;20221;-79
2023/08/11 10:31:22;;;;;;;10.70;2.67;;;;;;;29.30;100.00;99771.16;5069363;28;20250;-79
2023/08/11 10:33:51;;;;;;;16.75;4.18;;;;;;;29.09;100.00;99774.69;5064389;28;20264;-81
2023/08/11 10:36:23;;;;;;;16.98;4.03;;;;;;;30.06;100.00;99846.00;5069485;28;20222;-80
2023/08/11 10:39:02;;;;;;;20.83;4.88;;;;;;;29.68;100.00;99674.59;5068129;28;20233;-80
2023/08/11 10:41:28;;;;;;;16.20;3.83;;;;;;;29.56;100.00;99637.47;5066655;28;20218;-79
2023/08/11 10:43:56;;;;;;;16.52;3.65;;;;;;;30.28;100.00;99744.19;5070903;28;20225;-80
2023/08/11 10:46:30;;;;;;;11.10;2.70;;;;;;;29.20;100.00;99473.34;5066835;28;20229;-79
2023/08/11 10:49:00;;;;;;;11.95;2.83;;;;;;;29.81;100.00;99622.66;5063574;28;20688;-81
2023/08/11 10:51:37;;;;;;;16.55;3.90;;;;;;;29.68;100.00;99532.91;5070517;28;20226;-79
2023/08/11 10:54:07;;;;;;;13.75;3.25;;;;;;;30.73;100.00;99580.28;5065491;28;20236;-79
2023/08/11 10:56:35;;;;;;;17.23;4.25;;;;;;;30.70;100.00;99515.91;5060967;28;20225;-81
2023/08/11 10:59:14;;;;;;;11.80;3.15;;;;;;;30.78;100.00;99493.38;5073428;28;20236;-79
2023/08/11 11:01:45;;;;;;;12.82;3.20;;;;;;;29.50;100.00;99384.63;5065839;28;20248;-80
2023/08/11 11:04:13;;;;;;;13.13;3.05;;;;;;;30.18;100.00;99516.88;5069505;28;20237;-83
2023/08/11 11:06:41;;;;;;;15.05;4.05;;;;;;;30.41;100.00;99539.41;5072033;28;20217;-82
2023/08/11 11:09:08;;;;;;;15.13;3.45;;;;;;;30.54;100.00;99480.91;5074269;28;20221;-83
2023/08/11 11:11:36;;;;;;;20.02;4.90;;;;;;;31.28;100.00;99603.59;5070071;28;20231;-83
2023/08/11 11:14:04;;;;;;;19.30;4.63;;;;;;;32.80;100.00;99793.03;5064067;28;20231;-83
2023/08/11 11:16:32;;;;;;;19.17;4.78;;;;;;;31.41;100.00;99423.88;5078430;28;20292;-83
2023/08/11 11:19:00;;;;;;;11.98;3.05;;;;;;;32.18;100.00;99575.28;5069694;28;20298;-82
2023/08/11 11:21:28;;;;;;;28.58;6.75;;;;;;;31.44;100.00;99524.69;5049664;28;20217;-84
2023/08/11 11:23:55;;;;;;;23.88;6.18;;;;;;;31.62;100.00;99504.88;5068262;28;20312;-82
2023/08/11 11:26:27;;;;;;;19.83;4.53;;;;;;;31.44;100.00;99379.03;5075511;28;20225;-82
2023/08/11 11:28:56;;;;;;;19.30;5.40;;;;;;;31.38;100.00;99364.06;5072649;28;20225;-83
2023/08/11 11:31:24;;;;;;;16.80;3.38;;;;;;;31.73;100.00;99440.03;5071249;28;20233;-82
2023/08/11 11:33:51;;;;;;;18.00;3.78;;;;;;;32.64;100.00;99552.66;5077673;28;20285;-81
2023/08/11 11:36:19;;;;;;;24.10;5.00;;;;;;;33.71;99.18;99468.91;5079359;28;20217;-84
2023/08/11 11:38:46;;;;;;;13.68;3.03;;;;;;;31.90;87.08;99043.84;5078185;28;20225;-82
2023/08/11 11:41:15;;;;;;;19.50;4.45;;;;;;;32.98;94.85;99284.59;5077318;28;20307;-82
2023/08/11 11:43:44;;;;;;;19.98;4.05;;;;;;;32.54;100.00;99280.84;5074934;28;20225;-82
2023/08/11 11:46:14;;;;;;;16.95;3.45;;;;;;;31.57;100.00;99179.22;5069201;28;20667;-82
2023/08/11 11:48:46;;;;;;;22.67;4.43;;;;;;;32.25;100.00;99292.81;5080590;28;20225;-82
2023/08/11 11:51:14;;;;;;;16.20;3.47;;;;;;;33.03;100.00;99408.25;5076606;28;20240;-82
2023/08/11 11:53:42;;;;;;;17.52;3.78;;;;;;;31.82;96.62;99083.75;5082601;28;20316;-82
2023/08/11 11:56:14;;;;;;;17.77;3.85;;;;;;;31.85;100.00;99186.47;5076510;28;20296;-82
2023/08/11 11:58:43;;;;;;;19.42;3.85;;;;;;;31.54;100.00;99188.59;5079049;28;20308;-83
2023/08/11 12:01:10;;;;;;;17.85;4.00;;;;;;;31.79;100.00;99233.53;5086667;28;20224;-82
2023/08/11 12:03:37;;;;;;;27.70;5.53;;;;;;;32.29;100.00;99277.81;5072760;28;20226;-82
2023/08/11 12:06:05;;;;;;;10.07;2.83;;;;;;;34.27;93.32;99388.13;5076661;28;20288;-82
2023/08/11 12:08:33;;;;;;;15.23;4.53;;;;;;;32.82;93.23;99118.28;5076678;28;20240;-82
2023/08/11 12:11:01;;;;;;;9.38;2.63;;;;;;;31.82;100.00;99137.56;5069842;28;20211;-81
2023/08/11 12:13:32;;;;;;;16.95;4.57;;;;;;;31.22;100.00;99171.75;5072454;28;20217;-81